Time;durP1;ratioP1;P1;durP2;ratioP2;P2;SDS_P1;SDS_P2;PMS_P1;PMS_P2;Temp;Humidity;BMP_temperature;BMP_pressure;BME280_temperature;BME280_humidity;BME280_pressure;Samples;Min_cycle;Max_cycle;Signal;HPM_P1;HPM_P2
2021/01/25 00:01:30;;;;;;;10.00;3.70;;;4.10;84.50;;;;;;5013765;28;20025;-76
2021/01/25 00:03:56;;;;;;;7.50;3.08;;;4.10;84.60;;;;;;4996864;28;20022;-76
2021/01/25 00:06:22;;;;;;;7.90;3.75;;;4.20;84.60;;;;;;5014095;28;20513;-76
2021/01/25 00:08:47;;;;;;;6.95;2.70;;;4.20;84.60;;;;;;4997362;28;20117;-75
2021/01/25 00:11:13;;;;;;;6.68;3.20;;;4.20;84.60;;;;;;5014699;28;20037;-74
2021/01/25 00:13:39;;;;;;;7.20;3.38;;;4.20;84.70;;;;;;5014272;28;20436;-74
2021/01/25 00:16:05;;;;;;;8.93;3.30;;;4.10;84.60;;;;;;5014777;28;20022;-74
2021/01/25 00:18:30;;;;;;;6.88;3.67;;;4.20;84.60;;;;;;4996384;28;20018;-74
2021/01/25 00:20:56;;;;;;;7.95;4.28;;;4.20;84.70;;;;;;5014638;28;20084;-76
2021/01/25 00:23:22;;;;;;;8.48;3.75;;;4.20;84.70;;;;;;5014057;28;20026;-76
2021/01/25 00:25:47;;;;;;;8.57;3.35;;;4.20;84.70;;;;;;5014647;28;20096;-76
2021/01/25 00:28:13;;;;;;;7.60;3.53;;;4.10;84.60;;;;;;4997151;28;20059;-75
2021/01/25 00:30:38;;;;;;;8.55;3.90;;;4.10;84.60;;;;;;5014263;28;20034;-76
2021/01/25 00:33:04;;;;;;;8.95;3.30;;;4.20;84.70;;;;;;5014533;28;20098;-76
2021/01/25 00:35:30;;;;;;;6.38;3.40;;;4.20;84.70;;;;;;4996317;28;20057;-76
2021/01/25 00:37:55;;;;;;;8.00;3.30;;;4.20;84.60;;;;;;4999311;28;20060;-75
2021/01/25 00:40:22;;;;;;;8.80;3.83;;;4.20;85.20;;;;;;5013050;28;20018;-76
2021/01/25 00:42:47;;;;;;;10.07;4.00;;;4.20;84.50;;;;;;5013093;28;20025;-76
2021/01/25 00:45:13;;;;;;;9.60;4.15;;;4.20;84.50;;;;;;5013030;28;20516;-76
2021/01/25 00:47:39;;;;;;;10.90;3.90;;;4.20;84.40;;;;;;5012321;28;20037;-75
2021/01/25 00:50:05;;;;;;;8.02;3.45;;;4.20;84.50;;;;;;5014412;28;20026;-75
2021/01/25 00:52:31;;;;;;;8.23;3.90;;;4.20;84.40;;;;;;5012209;28;20111;-75
2021/01/25 00:54:56;;;;;;;8.40;3.80;;;4.10;84.40;;;;;;5012885;28;20022;-75
2021/01/25 00:57:22;;;;;;;10.38;3.45;;;4.10;84.40;;;;;;5012682;28;20081;-75
2021/01/25 00:59:48;;;;;;;11.93;4.82;;;4.10;84.40;;;;;;5013710;28;20041;-75
2021/01/25 01:02:14;;;;;;;8.10;3.80;;;4.10;84.40;;;;;;5014015;28;20374;-75
2021/01/25 01:04:40;;;;;;;9.75;3.80;;;4.10;84.50;;;;;;5012031;28;20030;-75
2021/01/25 01:07:05;;;;;;;9.57;3.83;;;4.10;84.50;;;;;;5013943;28;20037;-75
2021/01/25 01:09:31;;;;;;;8.93;3.50;;;4.10;84.40;;;;;;5013033;28;20057;-75
2021/01/25 01:11:56;;;;;;;9.27;4.00;;;4.10;84.40;;;;;;5012777;28;20026;-76
2021/01/25 01:14:23;;;;;;;9.95;4.30;;;4.10;84.40;;;;;;5013704;28;20033;-75
2021/01/25 01:16:49;;;;;;;10.25;3.75;;;4.10;84.40;;;;;;5012672;28;20029;-76
2021/01/25 01:19:15;;;;;;;13.13;4.50;;;4.10;84.40;;;;;;5013710;28;20433;-75
2021/01/25 01:21:40;;;;;;;10.05;4.07;;;4.10;84.30;;;;;;5011718;28;20018;-76
2021/01/25 01:24:07;;;;;;;10.15;4.95;;;4.10;84.30;;;;;;5013286;28;20056;-74
2021/01/25 01:26:32;;;;;;;13.45;4.88;;;4.10;84.30;;;;;;5012707;28;20026;-74
2021/01/25 01:28:58;;;;;;;9.52;4.03;;;4.10;84.30;;;;;;5013663;28;20129;-74
2021/01/25 01:31:24;;;;;;;9.10;4.07;;;4.10;84.40;;;;;;5013423;28;20030;-74
2021/01/25 01:33:49;;;;;;;8.00;4.28;;;4.10;84.40;;;;;;5012755;28;20383;-75
2021/01/25 01:36:15;;;;;;;8.25;4.03;;;4.10;84.40;;;;;;5012013;28;20026;-75
2021/01/25 01:38:41;;;;;;;10.38;4.30;;;4.10;84.40;;;;;;5012526;28;20057;-75
2021/01/25 01:41:07;;;;;;;8.95;4.22;;;4.10;84.30;;;;;;5013254;28;20060;-75
2021/01/25 01:43:33;;;;;;;10.00;3.85;;;4.10;84.30;;;;;;4994898;28;20022;-75
2021/01/25 01:45:58;;;;;;;8.23;3.83;;;4.10;84.40;;;;;;5013391;28;20029;-74
2021/01/25 01:48:25;;;;;;;9.73;4.00;;;4.10;84.40;;;;;;5013218;28;20057;-75
2021/01/25 01:50:51;;;;;;;7.43;3.63;;;4.10;84.40;;;;;;4994855;28;20026;-75
2021/01/25 01:53:17;;;;;;;9.82;4.40;;;4.10;84.40;;;;;;5013087;28;20026;-75
2021/01/25 01:55:44;;;;;;;10.70;5.20;;;4.10;84.40;;;;;;4994469;28;20026;-75
2021/01/25 01:58:11;;;;;;;7.93;4.38;;;4.20;84.40;;;;;;5012849;28;20454;-75
2021/01/25 02:00:37;;;;;;;9.57;4.93;;;4.20;84.40;;;;;;4994703;28;20136;-75
2021/01/25 02:03:03;;;;;;;8.07;4.32;;;4.20;84.30;;;;;;4995201;28;20212;-75
2021/01/25 02:05:29;;;;;;;10.13;4.85;;;4.20;84.20;;;;;;4994853;28;20029;-77
2021/01/25 02:07:57;;;;;;;11.55;4.53;;;4.20;84.30;;;;;;5012782;28;20466;-75
2021/01/25 02:10:24;;;;;;;8.15;4.07;;;4.20;84.30;;;;;;4995069;28;20466;-75
2021/01/25 02:12:54;;;;;;;11.63;5.22;;;4.20;84.30;;;;;;4994042;28;20033;-75
2021/01/25 02:15:21;;;;;;;11.48;4.75;;;4.20;84.30;;;;;;5012609;28;20521;-75
2021/01/25 02:17:48;;;;;;;11.50;4.32;;;4.20;84.30;;;;;;4994215;28;20034;-75
2021/01/25 02:20:32;;;;;;;12.50;4.40;;;4.20;84.20;;;;;;5012542;28;20038;-74
2021/01/25 02:23:35;;;;;;;11.80;4.30;;;4.20;84.20;;;;;;5012601;28;20026;-75
2021/01/25 02:26:23;;;;;;;10.85;4.32;;;4.20;84.20;;;;;;5013044;28;20049;-75
2021/01/25 02:28:48;;;;;;;10.68;4.10;;;4.10;84.30;;;;;;5011992;28;20026;-75
2021/01/25 02:31:15;;;;;;;10.85;4.57;;;4.10;84.40;;;;;;5012168;28;20382;-75
2021/01/25 02:33:51;;;;;;;9.73;4.78;;;4.10;84.40;;;;;;5011463;28;20041;-75
2021/01/25 02:36:17;;;;;;;10.48;3.88;;;4.10;84.40;;;;;;5012410;28;20061;-75
2021/01/25 02:38:47;;;;;;;8.70;4.40;;;4.10;84.40;;;;;;5011189;28;20046;-75
2021/01/25 02:41:15;;;;;;;11.25;4.80;;;4.10;84.40;;;;;;5012253;28;20475;-74
2021/01/25 02:43:41;;;;;;;10.35;4.45;;;4.10;84.50;;;;;;5011608;28;20071;-75
2021/01/25 02:46:10;;;;;;;13.25;4.65;;;4.20;84.60;;;;;;4994701;28;20104;-75
2021/01/25 02:48:37;;;;;;;9.18;4.05;;;4.10;84.50;;;;;;4993972;28;20029;-75
2021/01/25 02:51:03;;;;;;;10.93;4.85;;;4.20;84.60;;;;;;5012443;28;20032;-75
2021/01/25 02:53:29;;;;;;;10.48;4.93;;;4.20;84.60;;;;;;5011900;28;20048;-75
2021/01/25 02:55:56;;;;;;;12.07;4.65;;;4.10;84.50;;;;;;5011459;28;20463;-75
2021/01/25 02:58:23;;;;;;;10.68;4.35;;;4.10;84.50;;;;;;4994007;28;20029;-75
2021/01/25 03:00:50;;;;;;;12.23;4.43;;;4.10;84.50;;;;;;5010985;28;20041;-75
2021/01/25 03:03:17;;;;;;;8.80;5.20;;;4.10;84.60;;;;;;4994413;28;20018;-76
2021/01/25 03:05:43;;;;;;;8.48;3.78;;;4.10;84.60;;;;;;5011345;28;20025;-75
2021/01/25 03:08:09;;;;;;;11.30;4.25;;;4.10;84.60;;;;;;4994239;28;20026;-75
2021/01/25 03:10:35;;;;;;;9.32;4.38;;;4.10;84.60;;;;;;5011401;28;20067;-76
2021/01/25 03:13:02;;;;;;;14.40;4.75;;;4.10;84.60;;;;;;5012004;28;20113;-75
2021/01/25 03:15:29;;;;;;;11.18;4.65;;;4.10;84.80;;;;;;5011728;28;20029;-75
2021/01/25 03:17:55;;;;;;;10.90;3.72;;;4.00;84.80;;;;;;5011280;28;20030;-75
2021/01/25 03:20:21;;;;;;;9.50;4.07;;;4.10;84.90;;;;;;4994229;28;20022;-75
2021/01/25 03:22:47;;;;;;;12.25;4.88;;;4.00;84.80;;;;;;5011230;28;20030;-75
2021/01/25 03:25:13;;;;;;;11.63;4.53;;;4.00;84.80;;;;;;5011460;28;20484;-75
2021/01/25 03:27:38;;;;;;;10.38;4.53;;;4.00;84.80;;;;;;5011202;28;20064;-75
2021/01/25 03:30:12;;;;;;;8.20;3.75;;;4.00;84.80;;;;;;5011773;28;20034;-76
2021/01/25 03:32:38;;;;;;;9.05;4.60;;;4.10;84.90;;;;;;4993523;28;20430;-75
2021/01/25 03:35:06;;;;;;;10.52;4.53;;;4.00;84.80;;;;;;5011703;28;20103;-75
2021/01/25 03:37:32;;;;;;;8.63;4.43;;;4.00;84.90;;;;;;4994166;28;20038;-74
2021/01/25 03:39:58;;;;;;;12.05;4.60;;;4.00;84.90;;;;;;5011125;28;20030;-75
2021/01/25 03:42:24;;;;;;;9.85;4.40;;;4.00;85.00;;;;;;5011610;28;20072;-75
2021/01/25 03:44:50;;;;;;;10.40;4.07;;;4.00;84.90;;;;;;4993346;28;20069;-75
2021/01/25 03:47:16;;;;;;;9.75;4.60;;;4.00;85.00;;;;;;5010863;28;20472;-75
2021/01/25 03:49:41;;;;;;;8.05;3.88;;;3.90;85.00;;;;;;4992666;28;20122;-75
2021/01/25 03:52:07;;;;;;;9.40;4.25;;;3.90;85.00;;;;;;5010938;28;20076;-76
2021/01/25 03:54:33;;;;;;;12.23;4.40;;;3.90;85.10;;;;;;5010583;28;20028;-75
2021/01/25 03:56:59;;;;;;;10.13;4.15;;;3.90;85.20;;;;;;5010304;28;20038;-75
2021/01/25 03:59:25;;;;;;;12.80;4.07;;;3.90;85.20;;;;;;5010783;28;20367;-74
2021/01/25 04:01:50;;;;;;;13.63;4.90;;;3.80;85.10;;;;;;5010297;28;20103;-75
2021/01/25 04:04:16;;;;;;;11.57;3.70;;;3.90;85.20;;;;;;5010728;28;20026;-75
2021/01/25 04:06:43;;;;;;;9.38;4.65;;;3.80;85.20;;;;;;4992545;28;20045;-74
2021/01/25 04:09:08;;;;;;;10.18;4.00;;;3.80;85.10;;;;;;4993378;28;20069;-75
2021/01/25 04:11:34;;;;;;;6.07;3.63;;;3.80;85.20;;;;;;5010655;28;20026;-75
2021/01/25 04:13:59;;;;;;;9.73;4.35;;;3.80;85.30;;;;;;5012794;28;20462;-75
2021/01/25 04:16:25;;;;;;;9.43;3.28;;;3.80;85.30;;;;;;5014025;28;20030;-75
2021/01/25 04:18:51;;;;;;;12.30;4.03;;;3.70;85.30;;;;;;4996305;28;20125;-74
2021/01/25 04:21:17;;;;;;;9.52;4.07;;;3.70;85.30;;;;;;5014765;28;20169;-74
2021/01/25 04:23:43;;;;;;;8.52;3.53;;;3.70;85.20;;;;;;5014211;28;20476;-75
2021/01/25 04:26:10;;;;;;;9.55;3.80;;;3.70;85.30;;;;;;4996662;28;20215;-75
2021/01/25 04:28:36;;;;;;;9.88;4.25;;;3.70;85.30;;;;;;4996951;28;20111;-74
2021/01/25 04:31:01;;;;;;;7.05;3.60;;;3.70;85.30;;;;;;5013523;28;20111;-74
2021/01/25 04:33:27;;;;;;;7.68;3.53;;;3.70;85.50;;;;;;5014228;28;20029;-74
2021/01/25 04:35:53;;;;;;;7.72;3.97;;;3.70;85.50;;;;;;4996282;28;20511;-74
2021/01/25 04:38:18;;;;;;;10.65;4.47;;;3.60;85.50;;;;;;5014063;28;20127;-74
2021/01/25 04:40:44;;;;;;;12.05;5.63;;;3.60;85.50;;;;;;5013852;28;20029;-75
2021/01/25 04:43:10;;;;;;;7.38;3.53;;;3.60;85.50;;;;;;4996679;28;20028;-74
2021/01/25 04:45:36;;;;;;;10.02;4.03;;;3.60;85.60;;;;;;4996532;28;20458;-74
2021/01/25 04:48:02;;;;;;;10.30;4.15;;;3.60;85.60;;;;;;5013546;28;20030;-74
2021/01/25 04:50:29;;;;;;;10.57;4.13;;;3.60;85.60;;;;;;5014227;28;20053;-74
2021/01/25 04:52:56;;;;;;;12.02;3.85;;;3.50;85.60;;;;;;5013632;28;20474;-74
2021/01/25 04:55:22;;;;;;;10.10;4.32;;;3.50;85.70;;;;;;5014137;28;20026;-74
2021/01/25 04:57:48;;;;;;;9.68;4.15;;;3.50;85.70;;;;;;4995645;28;20022;-74
2021/01/25 05:00:17;;;;;;;10.90;4.55;;;3.50;85.70;;;;;;5013945;28;20528;-74
2021/01/25 05:02:43;;;;;;;10.90;4.53;;;3.50;85.80;;;;;;5018554;28;20026;-74
2021/01/25 05:05:09;;;;;;;11.00;4.30;;;3.50;85.80;;;;;;5023550;28;20033;-73
2021/01/25 05:07:35;;;;;;;7.25;4.10;;;3.40;85.70;;;;;;5007175;28;20151;-73
2021/01/25 05:10:03;;;;;;;12.60;4.22;;;3.40;85.70;;;;;;5024888;28;20053;-76
2021/01/25 05:12:44;;;;;;;9.30;4.10;;;3.40;85.70;;;;;;5023549;28;20083;-74
2021/01/25 05:15:11;;;;;;;7.30;3.50;;;3.40;85.70;;;;;;5004060;28;20025;-75
2021/01/25 05:17:37;;;;;;;10.15;4.93;;;3.40;85.80;;;;;;5019331;28;20038;-74
2021/01/25 05:20:07;;;;;;;9.70;4.80;;;3.40;85.80;;;;;;5015776;28;20041;-75
2021/01/25 05:22:39;;;;;;;9.00;4.30;;;3.40;85.80;;;;;;5018641;28;20470;-75
2021/01/25 05:25:08;;;;;;;10.77;4.72;;;3.40;85.90;;;;;;5012456;28;20026;-75
2021/01/25 05:27:34;;;;;;;10.65;4.93;;;3.30;85.80;;;;;;4995927;28;20029;-75
2021/01/25 05:30:09;;;;;;;9.68;4.32;;;3.30;85.90;;;;;;4995274;28;20053;-75
2021/01/25 05:32:52;;;;;;;10.50;4.30;;;3.30;85.90;;;;;;5028688;28;20030;-75
2021/01/25 05:35:29;;;;;;;8.80;4.10;;;3.30;85.90;;;;;;5032993;28;20048;-74
2021/01/25 05:38:00;;;;;;;10.52;4.35;;;3.30;85.90;;;;;;5014383;28;20065;-74
2021/01/25 05:40:27;;;;;;;9.70;4.65;;;3.30;85.90;;;;;;5032881;28;20425;-74
2021/01/25 05:42:55;;;;;;;10.80;4.55;;;3.30;85.90;;;;;;5014612;28;20100;-76
2021/01/25 05:45:21;;;;;;;9.20;3.72;;;3.30;86.50;;;;;;5015067;28;20021;-74
2021/01/25 05:47:47;;;;;;;9.48;4.45;;;3.30;85.90;;;;;;5030627;28;20029;-77
2021/01/25 05:50:26;;;;;;;10.35;3.97;;;3.30;85.80;;;;;;5012881;28;20040;-80
2021/01/25 05:52:53;;;;;;;11.07;4.60;;;3.30;85.80;;;;;;5030036;28;20067;-76
2021/01/25 05:55:19;;;;;;;8.27;3.83;;;3.30;85.80;;;;;;5030668;28;20025;-80
2021/01/25 05:57:45;;;;;;;11.52;4.78;;;3.30;85.80;;;;;;5029772;28;20458;-77
2021/01/25 06:00:12;;;;;;;9.52;4.82;;;3.30;85.80;;;;;;5012643;28;20022;-78
2021/01/25 06:02:46;;;;;;;14.68;5.03;;;3.20;85.70;;;;;;5012353;28;20453;-77
2021/01/25 06:05:23;;;;;;;11.82;4.38;;;3.30;85.80;;;;;;5012994;28;20013;-81
2021/01/25 06:07:50;;;;;;;10.10;4.15;;;3.20;85.80;;;;;;5030274;28;20037;-78
2021/01/25 06:10:24;;;;;;;12.98;4.88;;;3.20;85.80;;;;;;5030384;28;20113;-77
2021/01/25 06:12:57;;;;;;;12.35;4.97;;;3.20;85.80;;;;;;5029797;28;20033;-75
2021/01/25 06:15:26;;;;;;;10.30;5.35;;;3.20;85.80;;;;;;5012698;28;20477;-78
2021/01/25 06:17:56;;;;;;;11.15;4.53;;;3.20;85.80;;;;;;5012051;28;20033;-78
2021/01/25 06:20:24;;;;;;;14.30;5.47;;;3.20;85.90;;;;;;5012649;28;20377;-78
2021/01/25 06:22:50;;;;;;;13.20;4.65;;;3.20;85.80;;;;;;5011994;28;20116;-77
2021/01/25 06:25:16;;;;;;;13.98;4.57;;;3.20;85.80;;;;;;5014529;28;20105;-79
2021/01/25 06:27:42;;;;;;;10.98;4.22;;;3.20;85.80;;;;;;5030493;28;20450;-79
2021/01/25 06:30:11;;;;;;;13.13;5.32;;;3.20;85.80;;;;;;5030841;28;20052;-73
2021/01/25 06:32:41;;;;;;;8.27;4.68;;;3.20;85.80;;;;;;5032115;28;20018;-74
2021/01/25 06:35:11;;;;;;;14.93;4.97;;;3.20;85.80;;;;;;5030046;28;20341;-74
2021/01/25 06:37:37;;;;;;;12.85;4.90;;;3.20;85.80;;;;;;5013475;28;20067;-74
2021/01/25 06:40:11;;;;;;;9.38;5.25;;;3.10;85.70;;;;;;5031592;28;20029;-74
2021/01/25 06:42:44;;;;;;;11.60;5.40;;;3.10;85.70;;;;;;5013817;28;20026;-75
2021/01/25 06:45:11;;;;;;;11.15;5.70;;;3.10;85.80;;;;;;5031015;28;20040;-75
2021/01/25 06:47:38;;;;;;;9.35;5.05;;;3.10;85.80;;;;;;5031699;28;20029;-74
2021/01/25 06:50:04;;;;;;;12.73;6.32;;;3.00;85.80;;;;;;5031210;28;20026;-72
2021/01/25 06:52:32;;;;;;;14.70;6.35;;;3.00;85.80;;;;;;5013715;28;20017;-74
2021/01/25 06:55:01;;;;;;;10.55;5.13;;;3.00;85.80;;;;;;5013325;28;20022;-74
2021/01/25 06:57:27;;;;;;;13.48;6.10;;;3.00;85.90;;;;;;5031931;28;20445;-74
2021/01/25 06:59:55;;;;;;;11.02;4.65;;;3.00;85.90;;;;;;5013307;28;20377;-74
2021/01/25 07:02:23;;;;;;;11.90;4.63;;;3.00;85.90;;;;;;5031699;28;20021;-73
2021/01/25 07:04:51;;;;;;;12.50;5.22;;;3.00;85.90;;;;;;5013467;28;20025;-74
2021/01/25 07:07:26;;;;;;;12.35;5.22;;;2.90;85.90;;;;;;5032134;28;20330;-73
2021/01/25 07:09:53;;;;;;;15.52;5.00;;;3.00;86.00;;;;;;5030748;28;20057;-74
2021/01/25 07:12:22;;;;;;;14.00;5.28;;;2.90;85.90;;;;;;5031712;28;20021;-73
2021/01/25 07:14:49;;;;;;;15.13;5.45;;;2.90;85.90;;;;;;5031580;28;20043;-73
2021/01/25 07:17:15;;;;;;;12.85;4.63;;;2.90;85.90;;;;;;5013128;28;20021;-73
2021/01/25 07:19:40;;;;;;;13.60;6.07;;;2.90;85.90;;;;;;5013606;28;20080;-73
2021/01/25 07:22:08;;;;;;;13.30;5.63;;;2.90;85.90;;;;;;5012994;28;20052;-73
2021/01/25 07:24:36;;;;;;;12.35;7.50;;;2.90;85.90;;;;;;5031444;28;20014;-73
2021/01/25 07:27:01;;;;;;;11.93;6.00;;;2.90;85.90;;;;;;5030913;28;20089;-73
2021/01/25 07:29:28;;;;;;;12.15;6.10;;;2.80;86.50;;;;;;5013553;28;20022;-73
2021/01/25 07:31:56;;;;;;;14.40;6.20;;;2.90;86.10;;;;;;5013026;28;20097;-73
2021/01/25 07:34:23;;;;;;;10.00;4.80;;;2.90;86.00;;;;;;5031406;28;20025;-74
2021/01/25 07:36:49;;;;;;;14.93;5.32;;;2.90;86.00;;;;;;5013468;28;20370;-74
2021/01/25 07:39:16;;;;;;;14.55;6.40;;;2.90;86.00;;;;;;5022763;28;20061;-74
2021/01/25 07:41:43;;;;;;;9.30;4.53;;;2.90;86.00;;;;;;5029978;28;20071;-74
2021/01/25 07:44:10;;;;;;;15.68;5.40;;;2.90;86.10;;;;;;5030413;28;20025;-74
2021/01/25 07:46:37;;;;;;;12.15;4.78;;;2.90;86.10;;;;;;5031056;28;20349;-75
2021/01/25 07:49:03;;;;;;;12.05;4.55;;;2.90;86.00;;;;;;5034227;28;20018;-75
2021/01/25 07:51:32;;;;;;;12.70;5.20;;;2.90;86.10;;;;;;5035023;28;20461;-73
2021/01/25 07:53:58;;;;;;;12.57;4.72;;;2.90;86.10;;;;;;5034271;28;20104;-75
2021/01/25 07:56:26;;;;;;;9.40;4.80;;;2.90;86.00;;;;;;5033316;28;20541;-75
2021/01/25 07:59:05;;;;;;;12.55;5.22;;;2.90;86.00;;;;;;5033394;28;20470;-74
2021/01/25 08:01:36;;;;;;;13.75;4.93;;;2.90;86.00;;;;;;5033403;28;20025;-74
2021/01/25 08:04:04;;;;;;;9.77;4.30;;;2.90;86.00;;;;;;5034220;28;20469;-75
2021/01/25 08:06:36;;;;;;;8.63;4.72;;;2.90;86.00;;;;;;5034872;28;20045;-74
2021/01/25 08:09:07;;;;;;;9.80;4.75;;;2.90;86.00;;;;;;5032631;28;20373;-75
2021/01/25 08:11:35;;;;;;;11.27;4.60;;;2.90;86.00;;;;;;5034613;28;20021;-74
2021/01/25 08:14:23;;;;;;;8.25;4.40;;;2.90;86.00;;;;;;5034063;28;20025;-75
2021/01/25 08:17:02;;;;;;;11.90;4.60;;;2.90;86.00;;;;;;5034381;28;20100;-74
2021/01/25 08:19:44;;;;;;;10.07;3.80;;;2.90;86.00;;;;;;5033255;28;20485;-74
2021/01/25 08:22:22;;;;;;;9.38;4.35;;;2.90;85.90;;;;;;5032566;28;20037;-74
2021/01/25 08:25:00;;;;;;;10.13;4.45;;;2.90;85.80;;;;;;5034525;28;20032;-74
2021/01/25 08:27:29;;;;;;;9.68;3.88;;;2.90;85.80;;;;;;5032974;28;20477;-74
2021/01/25 08:30:18;;;;;;;11.35;4.22;;;2.90;85.80;;;;;;5034282;28;20033;-74
2021/01/25 08:32:47;;;;;;;13.07;6.22;;;3.00;85.80;;;;;;5034238;28;20469;-74
2021/01/25 08:35:14;;;;;;;12.70;4.72;;;3.00;85.80;;;;;;5033617;28;20075;-74
2021/01/25 08:37:40;;;;;;;12.50;4.18;;;3.00;85.70;;;;;;5033459;28;20393;-74
2021/01/25 08:40:15;;;;;;;9.30;4.22;;;3.00;85.70;;;;;;5033478;28;20021;-75
2021/01/25 08:42:42;;;;;;;9.88;4.15;;;3.00;85.70;;;;;;5033642;28;20025;-74
2021/01/25 08:45:22;;;;;;;8.32;3.20;;;3.00;85.70;;;;;;5033228;28;20385;-74
2021/01/25 08:47:47;;;;;;;13.25;4.32;;;3.10;85.70;;;;;;5033837;28;20026;-74
2021/01/25 08:50:39;;;;;;;13.23;4.60;;;3.10;85.60;;;;;;5033213;28;20036;-74
2021/01/25 08:53:11;;;;;;;14.38;5.07;;;3.10;85.60;;;;;;5011843;28;20056;-74
2021/01/25 08:55:47;;;;;;;15.55;5.00;;;3.10;85.60;;;;;;5033898;28;20042;-74
2021/01/25 08:58:39;;;;;;;9.38;4.85;;;3.10;85.60;;;;;;5014414;28;20054;-74
2021/01/25 09:01:23;;;;;;;13.77;5.47;;;3.10;85.50;;;;;;5028863;28;20045;-74
2021/01/25 09:03:49;;;;;;;11.10;5.50;;;3.20;85.60;;;;;;5033684;28;20485;-74
2021/01/25 09:06:14;;;;;;;10.77;4.32;;;3.10;85.50;;;;;;5033065;28;20064;-74
2021/01/25 09:08:40;;;;;;;10.88;4.85;;;3.10;85.50;;;;;;5015672;28;20029;-74
2021/01/25 09:11:07;;;;;;;8.88;4.28;;;3.20;85.50;;;;;;5033018;28;20462;-75
2021/01/25 09:13:33;;;;;;;15.50;5.80;;;3.20;85.50;;;;;;5015625;28;20554;-75
2021/01/25 09:16:00;;;;;;;12.30;4.45;;;3.20;85.40;;;;;;5015306;28;20425;-74
2021/01/25 09:18:25;;;;;;;12.40;4.82;;;3.20;85.40;;;;;;5033526;28;20087;-74
2021/01/25 09:20:51;;;;;;;12.35;4.57;;;3.30;85.40;;;;;;5033240;28;20033;-74
2021/01/25 09:23:18;;;;;;;14.80;5.10;;;3.30;85.40;;;;;;5014817;28;20478;-74
2021/01/25 09:25:45;;;;;;;12.73;5.15;;;3.30;85.30;;;;;;5033314;28;20032;-74
2021/01/25 09:28:11;;;;;;;13.27;4.65;;;3.40;85.30;;;;;;5032281;28;20029;-73
2021/01/25 09:30:37;;;;;;;15.65;5.20;;;3.40;85.30;;;;;;5015483;28;20025;-74
2021/01/25 09:33:03;;;;;;;9.18;4.20;;;3.40;85.30;;;;;;5014689;28;20381;-75
2021/01/25 09:35:28;;;;;;;12.05;4.65;;;3.40;85.30;;;;;;5032767;28;20074;-74
2021/01/25 09:37:54;;;;;;;7.95;4.10;;;3.40;85.20;;;;;;5032624;28;20065;-75
2021/01/25 09:40:20;;;;;;;12.50;4.88;;;3.50;85.30;;;;;;5014658;28;20083;-74
2021/01/25 09:42:46;;;;;;;9.55;3.75;;;3.50;85.20;;;;;;5032982;28;20029;-74
2021/01/25 09:45:15;;;;;;;7.00;3.78;;;3.50;85.10;;;;;;5032287;28;20051;-74
2021/01/25 09:47:41;;;;;;;8.57;3.55;;;3.60;85.10;;;;;;5015017;28;20033;-73
2021/01/25 09:50:10;;;;;;;12.23;4.55;;;3.60;85.00;;;;;;5014264;28;20021;-74
2021/01/25 09:52:40;;;;;;;12.02;4.28;;;3.70;85.00;;;;;;5014899;28;20048;-73
2021/01/25 09:55:07;;;;;;;11.05;3.92;;;3.70;84.90;;;;;;5031985;28;20029;-74
2021/01/25 09:57:33;;;;;;;8.77;3.90;;;3.70;84.90;;;;;;5032622;28;20029;-73
2021/01/25 09:59:58;;;;;;;7.07;3.38;;;3.70;84.80;;;;;;5032611;28;20029;-73
2021/01/25 10:02:24;;;;;;;12.40;3.20;;;3.70;84.80;;;;;;5031936;28;20461;-74
2021/01/25 10:04:50;;;;;;;10.50;3.53;;;3.70;84.70;;;;;;5032505;28;20053;-73
2021/01/25 10:07:15;;;;;;;7.90;3.22;;;3.80;84.70;;;;;;5031674;28;20022;-74
2021/01/25 10:09:41;;;;;;;8.45;3.50;;;3.80;84.70;;;;;;5031928;28;20025;-73
2021/01/25 10:12:07;;;;;;;8.38;3.80;;;3.80;84.60;;;;;;5013872;28;20020;-74
2021/01/25 10:14:32;;;;;;;7.50;3.17;;;3.80;84.50;;;;;;5032283;28;20449;-74
2021/01/25 10:16:59;;;;;;;8.00;3.88;;;3.90;84.60;;;;;;5032496;28;20446;-73
2021/01/25 10:19:25;;;;;;;11.68;4.15;;;3.90;84.60;;;;;;5031765;28;20026;-74
2021/01/25 10:21:51;;;;;;;12.30;4.75;;;3.90;84.50;;;;;;5032232;28;20032;-73
2021/01/25 10:24:16;;;;;;;8.55;3.70;;;3.90;84.40;;;;;;5031740;28;20373;-72
2021/01/25 10:26:42;;;;;;;8.13;3.60;;;4.00;84.40;;;;;;5032304;28;20108;-72
2021/01/25 10:29:08;;;;;;;10.82;3.95;;;4.00;84.30;;;;;;5031221;28;20402;-75
2021/01/25 10:31:34;;;;;;;6.53;3.25;;;4.00;84.30;;;;;;5014098;28;20033;-73
2021/01/25 10:33:59;;;;;;;8.68;3.58;;;4.00;84.30;;;;;;5014101;28;20179;-75
2021/01/25 10:36:25;;;;;;;9.00;3.22;;;4.00;84.20;;;;;;5031388;28;20451;-73
2021/01/25 10:38:51;;;;;;;5.57;3.08;;;4.10;84.10;;;;;;5031311;28;20065;-72
2021/01/25 10:41:17;;;;;;;8.25;3.90;;;4.10;84.20;;;;;;5031272;28;20033;-73
2021/01/25 10:43:43;;;;;;;10.00;3.72;;;4.10;84.00;;;;;;5013955;28;20024;-75
2021/01/25 10:46:09;;;;;;;9.18;3.72;;;4.10;84.00;;;;;;5030651;28;20029;-72
2021/01/25 10:48:35;;;;;;;12.23;4.22;;;4.10;84.00;;;;;;5013828;28;20033;-72
2021/01/25 10:51:01;;;;;;;11.63;4.47;;;4.20;83.90;;;;;;5014038;28;20068;-75
2021/01/25 10:53:26;;;;;;;8.82;3.85;;;4.20;83.80;;;;;;5030752;28;20316;-72
2021/01/25 10:55:52;;;;;;;9.05;4.13;;;4.20;83.70;;;;;;5013799;28;20036;-73
2021/01/25 10:58:18;;;;;;;7.75;3.10;;;4.30;83.70;;;;;;5013135;28;20022;-73
2021/01/25 11:00:44;;;;;;;11.13;3.95;;;4.40;83.50;;;;;;5031616;28;20440;-73
2021/01/25 11:03:10;;;;;;;6.80;3.28;;;4.40;83.30;;;;;;5013259;28;20547;-73
2021/01/25 11:05:36;;;;;;;7.30;2.95;;;4.50;83.10;;;;;;5031669;28;20018;-73
2021/01/25 11:08:02;;;;;;;7.00;3.30;;;4.60;82.90;;;;;;5031512;28;20034;-73
2021/01/25 11:10:28;;;;;;;9.00;3.83;;;4.70;82.80;;;;;;5012845;28;20241;-73
2021/01/25 11:12:54;;;;;;;7.75;4.50;;;4.80;82.50;;;;;;5031459;28;20027;-74
2021/01/25 11:15:21;;;;;;;5.50;2.80;;;4.90;82.20;;;;;;5031158;28;20022;-73
2021/01/25 11:17:47;;;;;;;9.65;3.25;;;5.00;82.10;;;;;;5013434;28;20461;-73
2021/01/25 11:20:14;;;;;;;9.32;3.10;;;5.10;81.90;;;;;;5030540;28;20091;-73
2021/01/25 11:22:43;;;;;;;9.27;4.40;;;5.20;81.70;;;;;;5016609;28;20026;-73
2021/01/25 11:25:09;;;;;;;10.32;3.45;;;5.30;81.40;;;;;;5035368;28;20064;-73
2021/01/25 11:27:35;;;;;;;8.07;3.20;;;5.30;81.00;;;;;;5017553;28;20444;-73
2021/01/25 11:30:01;;;;;;;8.70;3.05;;;5.40;81.00;;;;;;5035163;28;20051;-73
2021/01/25 11:32:27;;;;;;;8.95;3.55;;;5.50;80.90;;;;;;5034658;28;20071;-73
2021/01/25 11:34:52;;;;;;;9.25;3.10;;;5.60;80.80;;;;;;5017363;28;20022;-73
2021/01/25 11:37:19;;;;;;;8.05;3.80;;;5.80;80.60;;;;;;5016629;28;20026;-74
2021/01/25 11:39:45;;;;;;;9.25;4.05;;;5.90;80.40;;;;;;5035440;28;20129;-73
2021/01/25 11:42:11;;;;;;;9.65;3.97;;;6.00;80.30;;;;;;5034643;28;20358;-76
2021/01/25 11:44:37;;;;;;;10.10;3.67;;;6.10;80.20;;;;;;5017423;28;20099;-74
2021/01/25 11:47:04;;;;;;;10.02;3.72;;;6.20;80.80;;;;;;5017152;28;20024;-74
2021/01/25 11:49:30;;;;;;;9.10;3.63;;;6.40;80.10;;;;;;5034504;28;20044;-74
2021/01/25 11:51:55;;;;;;;10.50;4.07;;;6.50;80.00;;;;;;5035881;28;20462;-73
2021/01/25 11:54:21;;;;;;;7.93;3.85;;;6.60;79.70;;;;;;5016564;28;20017;-73
2021/01/25 11:56:46;;;;;;;9.75;4.55;;;6.60;78.60;;;;;;5035082;28;20541;-74
2021/01/25 11:59:12;;;;;;;10.10;4.13;;;6.70;78.80;;;;;;5034372;28;20037;-75
2021/01/25 12:01:38;;;;;;;8.98;3.75;;;6.70;78.50;;;;;;5034766;28;20021;-74
2021/01/25 12:04:05;;;;;;;10.27;3.20;;;6.80;78.40;;;;;;5016883;28;20420;-74
2021/01/25 12:06:31;;;;;;;10.50;4.20;;;6.80;78.20;;;;;;5016332;28;20034;-74
2021/01/25 12:08:56;;;;;;;8.68;3.33;;;6.70;78.00;;;;;;5034434;28;20029;-74
2021/01/25 12:11:22;;;;;;;7.50;3.60;;;6.70;78.10;;;;;;5016344;28;20112;-74
2021/01/25 12:13:48;;;;;;;12.45;4.30;;;6.70;78.30;;;;;;5016802;28;20450;-73
2021/01/25 12:16:15;;;;;;;7.75;3.75;;;6.80;78.30;;;;;;5034248;28;20073;-74
2021/01/25 12:18:42;;;;;;;6.35;3.45;;;6.80;78.20;;;;;;5016670;28;20029;-73
2021/01/25 12:21:08;;;;;;;6.68;3.47;;;6.80;78.00;;;;;;5034535;28;20025;-73
2021/01/25 12:23:34;;;;;;;9.63;4.00;;;6.70;77.70;;;;;;5015975;28;20108;-73
2021/01/25 12:26:00;;;;;;;8.30;3.53;;;6.70;77.00;;;;;;5034290;28;20085;-73
2021/01/25 12:28:26;;;;;;;6.53;3.08;;;6.70;76.90;;;;;;5033455;28;20156;-74
2021/01/25 12:30:51;;;;;;;6.28;3.10;;;6.80;77.10;;;;;;5034280;28;20049;-73
2021/01/25 12:33:17;;;;;;;7.72;3.20;;;6.80;77.00;;;;;;5014785;28;20110;-74
2021/01/25 12:35:43;;;;;;;7.50;2.75;;;6.80;76.90;;;;;;5033884;28;20021;-73
2021/01/25 12:38:08;;;;;;;5.50;2.38;;;6.90;76.80;;;;;;5017462;28;20055;-73
2021/01/25 12:40:34;;;;;;;4.90;2.42;;;6.90;76.60;;;;;;5032184;28;20061;-73
2021/01/25 12:43:00;;;;;;;9.63;2.95;;;6.90;76.40;;;;;;5032692;28;20117;-73
2021/01/25 12:45:27;;;;;;;5.35;2.45;;;7.00;76.30;;;;;;5033362;28;20021;-73
2021/01/25 12:47:52;;;;;;;7.43;2.75;;;7.00;76.40;;;;;;5033660;28;20392;-74
2021/01/25 12:50:18;;;;;;;6.35;3.08;;;7.10;76.00;;;;;;5033358;28;20025;-74
2021/01/25 12:52:44;;;;;;;5.50;3.05;;;7.10;76.40;;;;;;5032289;28;20109;-74
2021/01/25 12:55:10;;;;;;;5.85;2.47;;;7.00;75.40;;;;;;5033535;28;20105;-73